createdAt,value
2022-10-04T00:01:43.992Z,28.29
2022-10-04T00:04:26.407Z,28.25
2022-10-04T00:07:17.676Z,28.29
2022-10-04T00:09:55.793Z,28.25
2022-10-04T00:12:31.235Z,28.22
2022-10-04T00:15:01.151Z,28.21
2022-10-04T00:17:31.681Z,28.18
2022-10-04T00:19:58.614Z,28.15
2022-10-04T00:22:28.956Z,28.15
2022-10-04T00:25:01.095Z,28.24
2022-10-04T00:27:28.560Z,28.16
2022-10-04T00:30:03.708Z,28.25
2022-10-04T00:32:39.450Z,28.25
2022-10-04T00:35:24.702Z,28.26
2022-10-04T00:37:57.460Z,28.23
2022-10-04T00:40:28.606Z,28.17
2022-10-04T00:43:03.923Z,28.22
2022-10-04T00:45:40.621Z,28.18
2022-10-04T00:48:31.781Z,28.25
2022-10-04T00:51:09.450Z,28.19
2022-10-04T00:53:57.608Z,28.19
2022-10-04T00:56:35.508Z,28.21
2022-10-04T00:59:14.021Z,28.24
2022-10-04T01:01:44.676Z,28.11
2022-10-04T01:04:37.830Z,28.24
2022-10-04T01:07:06.064Z,28.10
2022-10-04T01:09:38.188Z,28.13
2022-10-04T01:12:14.192Z,28.18
2022-10-04T01:14:52.467Z,28.22
2022-10-04T01:17:19.941Z,28.10
2022-10-04T01:19:52.081Z,28.19
2022-10-04T01:22:37.493Z,28.20
2022-10-04T01:25:04.453Z,28.09
2022-10-04T01:27:52.651Z,27.99
2022-10-04T01:30:19.858Z,28.08
2022-10-04T01:32:46.301Z,28.05
2022-10-04T01:35:15.244Z,28.11
2022-10-04T01:37:41.775Z,28.05
2022-10-04T01:40:09.893Z,28.10
2022-10-04T01:42:44.629Z,28.15
2022-10-04T01:45:11.129Z,28.07
2022-10-04T01:47:59.724Z,28.21
2022-10-04T01:50:33.931Z,28.10
2022-10-04T01:53:21.052Z,28.16
2022-10-04T01:56:27.926Z,28.18
2022-10-04T01:59:06.376Z,28.09
2022-10-04T02:01:41.119Z,28.05
2022-10-04T02:04:30.541Z,28.17
2022-10-04T02:07:00.050Z,28.09
2022-10-04T02:09:38.358Z,28.10
2022-10-04T02:12:06.117Z,28.01
2022-10-04T02:14:35.026Z,28.08
2022-10-04T02:17:10.532Z,28.09
2022-10-04T02:19:40.618Z,28.06
2022-10-04T02:22:09.556Z,28.04
2022-10-04T02:24:40.913Z,28.07
2022-10-04T02:27:07.395Z,28.03
2022-10-04T02:29:34.304Z,27.89
2022-10-04T02:32:28.362Z,28.03
2022-10-04T02:34:56.562Z,28.03
2022-10-04T02:37:28.558Z,28.06
2022-10-04T02:40:15.922Z,28.13
2022-10-04T02:42:58.038Z,28.12
2022-10-04T02:45:49.368Z,28.10
2022-10-04T02:48:30.631Z,28.09
2022-10-04T02:51:06.578Z,28.07
2022-10-04T02:53:50.658Z,28.12
2022-10-04T02:56:18.502Z,27.97
2022-10-04T02:58:52.347Z,28.01
2022-10-04T03:01:28.305Z,28.07
2022-10-04T03:03:56.888Z,28.00
2022-10-04T03:06:28.256Z,28.02
2022-10-04T03:09:02.339Z,28.04
2022-10-04T03:11:31.715Z,28.06
2022-10-04T03:14:01.027Z,28.01
2022-10-04T03:16:33.088Z,27.97
2022-10-04T03:19:00.595Z,28.00
2022-10-04T03:21:27.548Z,28.00
2022-10-04T03:23:54.131Z,28.00
2022-10-04T03:26:36.958Z,28.10
2022-10-04T03:29:09.538Z,28.00
2022-10-04T03:31:41.809Z,28.05
2022-10-04T03:34:18.839Z,28.10
2022-10-04T03:36:54.318Z,27.98
2022-10-04T03:39:34.551Z,28.08
2022-10-04T03:42:08.278Z,28.06
2022-10-04T03:44:34.854Z,27.98
2022-10-04T03:47:02.372Z,27.98
2022-10-04T03:49:41.334Z,28.04
2022-10-04T03:52:16.109Z,27.98
2022-10-04T03:54:43.206Z,27.94
2022-10-04T03:57:30.307Z,28.03
2022-10-04T03:59:58.346Z,27.96
2022-10-04T04:02:43.701Z,27.98
2022-10-04T04:05:19.320Z,28.02
2022-10-04T04:07:54.203Z,27.99
2022-10-04T04:10:28.865Z,28.04
2022-10-04T04:13:00.775Z,28.01
2022-10-04T04:15:33.016Z,28.04
2022-10-04T04:18:10.930Z,28.05
2022-10-04T04:20:38.916Z,27.98
2022-10-04T04:23:17.305Z,28.02
2022-10-04T04:25:55.747Z,28.05
2022-10-04T04:28:40.463Z,28.02
2022-10-04T04:31:20.725Z,28.06
2022-10-04T04:34:03.296Z,28.02
2022-10-04T04:36:32.072Z,27.97
2022-10-04T04:39:36.515Z,28.05
2022-10-04T04:42:19.224Z,28.02
2022-10-04T04:44:52.812Z,28.00
2022-10-04T04:47:29.982Z,28.04
2022-10-04T04:50:01.963Z,27.95
2022-10-04T04:52:29.568Z,27.94
2022-10-04T04:54:56.568Z,27.93
2022-10-04T04:57:23.611Z,27.92
2022-10-04T04:59:56.171Z,27.99
2022-10-04T05:02:37.215Z,28.03
2022-10-04T05:05:36.047Z,28.04
2022-10-04T05:08:20.970Z,28.04
2022-10-04T05:10:58.336Z,27.98
2022-10-04T05:13:41.530Z,28.00
2022-10-04T05:16:36.783Z,28.01
2022-10-04T05:19:08.434Z,27.94
2022-10-04T05:21:38.596Z,27.87
2022-10-04T05:24:18.795Z,27.97
2022-10-04T05:26:50.529Z,27.95
2022-10-04T05:29:23.619Z,27.94
2022-10-04T05:32:21.616Z,28.00
2022-10-04T05:34:50.005Z,27.88
2022-10-04T05:37:29.551Z,27.95
2022-10-04T05:39:56.050Z,27.87
2022-10-04T05:42:28.961Z,27.92
2022-10-04T05:44:57.849Z,27.88
2022-10-04T05:47:30.366Z,27.96
2022-10-04T05:50:00.881Z,27.91
2022-10-04T05:52:38.462Z,27.94
2022-10-04T05:55:37.539Z,27.98
2022-10-04T05:58:19.101Z,27.95
2022-10-04T06:01:07.166Z,27.94
2022-10-04T06:03:40.826Z,27.92
2022-10-04T06:06:24.332Z,27.96
2022-10-04T06:09:34.232Z,27.94
2022-10-04T06:12:20.118Z,27.95
2022-10-04T06:15:06.469Z,27.93
2022-10-04T06:17:47.367Z,27.92
2022-10-04T06:20:38.699Z,27.94
2022-10-04T06:23:13.735Z,27.91
2022-10-04T06:25:51.417Z,27.90
2022-10-04T06:28:32.224Z,27.93
2022-10-04T06:31:16.253Z,27.90
2022-10-04T06:33:54.565Z,27.81
2022-10-04T06:36:45.518Z,27.92
2022-10-04T06:39:37.235Z,27.82
2022-10-04T06:42:34.057Z,27.81
2022-10-04T06:45:19.363Z,27.91
2022-10-04T06:48:06.200Z,27.93
2022-10-04T06:50:51.316Z,27.90
2022-10-04T06:53:43.223Z,27.93
2022-10-04T06:56:31.514Z,27.87
2022-10-04T06:59:31.216Z,27.89
2022-10-04T07:02:04.068Z,27.86
2022-10-04T07:07:37.204Z,27.84
2022-10-04T07:10:50.826Z,27.92
2022-10-04T07:13:38.426Z,27.90
2022-10-04T07:16:08.437Z,27.81
2022-10-04T07:18:37.676Z,27.86
2022-10-04T07:21:12.440Z,27.90
2022-10-04T07:23:56.292Z,27.93
2022-10-04T07:26:28.886Z,27.87
2022-10-04T07:29:19.134Z,27.86
2022-10-04T07:31:54.206Z,27.82
2022-10-04T07:34:26.084Z,27.83
2022-10-04T07:36:56.610Z,27.84
2022-10-04T07:39:45.970Z,27.94
2022-10-04T07:42:23.073Z,27.91
2022-10-04T07:45:12.426Z,27.94
2022-10-04T07:47:39.015Z,27.81
2022-10-04T07:50:34.549Z,27.95
2022-10-04T07:53:16.170Z,27.88
2022-10-04T07:56:08.063Z,27.95
2022-10-04T07:59:24.163Z,27.94
2022-10-04T08:02:12.819Z,27.81
2022-10-04T08:05:01.440Z,27.94
2022-10-04T08:08:04.795Z,27.92
2022-10-04T08:11:05.260Z,27.90
2022-10-04T08:14:00.095Z,27.91
2022-10-04T08:16:36.744Z,27.89
2022-10-04T08:19:18.341Z,27.87
2022-10-04T08:22:02.574Z,27.93
2022-10-04T08:24:54.271Z,27.91
2022-10-04T08:27:20.586Z,27.83
2022-10-04T08:30:02.083Z,27.94
2022-10-04T08:32:47.157Z,27.84
2022-10-04T08:35:43.163Z,27.95
2022-10-04T08:38:35.924Z,27.96
2022-10-04T08:41:11.315Z,27.94
2022-10-04T08:43:59.748Z,27.98
2022-10-04T08:46:52.959Z,27.96
2022-10-04T08:49:38.187Z,27.96
2022-10-04T08:52:26.950Z,27.92
2022-10-04T08:55:14.720Z,27.99
2022-10-04T08:57:56.332Z,27.97
2022-10-04T09:00:41.167Z,27.94
2022-10-04T09:03:44.940Z,27.99
2022-10-04T09:06:36.387Z,28.01
2022-10-04T09:09:42.398Z,28.01
2022-10-04T09:12:36.363Z,27.99
2022-10-04T09:15:22.440Z,28.01
2022-10-04T09:18:01.407Z,27.99
2022-10-04T09:21:01.069Z,27.99
2022-10-04T09:23:52.309Z,28.03
2022-10-04T09:26:44.755Z,28.03
2022-10-04T09:29:36.509Z,28.04
2022-10-04T09:32:14.883Z,27.93
2022-10-04T09:35:11.704Z,28.04
2022-10-04T09:37:59.935Z,27.99
2022-10-04T09:40:54.319Z,28.03
2022-10-04T09:43:42.596Z,28.05
2022-10-04T09:46:16.427Z,28.00
2022-10-04T09:48:57.455Z,28.00
2022-10-04T09:51:42.664Z,28.05
2022-10-04T09:54:40.042Z,28.06
2022-10-04T09:58:00.118Z,28.09
2022-10-04T10:00:35.154Z,28.02
2022-10-04T10:03:28.783Z,28.08
2022-10-04T10:06:13.641Z,28.10
2022-10-04T10:09:10.285Z,28.11
2022-10-04T10:12:29.122Z,28.11
2022-10-04T10:14:55.646Z,27.99
2022-10-04T10:17:24.988Z,28.07
2022-10-04T10:20:03.583Z,28.12
2022-10-04T10:23:07.339Z,28.14
2022-10-04T10:26:11.535Z,28.13
2022-10-04T10:28:51.759Z,28.02
2022-10-04T10:31:18.231Z,28.02
2022-10-04T10:34:12.565Z,28.13
2022-10-04T10:37:00.943Z,28.09
2022-10-04T10:40:02.509Z,28.16
2022-10-04T10:42:58.087Z,28.15
2022-10-04T10:45:45.666Z,28.15
2022-10-04T10:48:30.358Z,28.11
2022-10-04T10:51:31.345Z,28.17
2022-10-04T10:54:16.044Z,28.10
2022-10-04T10:57:28.080Z,28.15
2022-10-04T11:00:00.595Z,28.04
2022-10-04T11:03:11.729Z,28.11
2022-10-04T11:06:15.343Z,28.11
2022-10-04T11:09:03.466Z,28.17
2022-10-04T11:11:48.527Z,28.05
2022-10-04T11:14:43.706Z,28.15
2022-10-04T11:17:20.850Z,28.11
2022-10-04T11:20:15.524Z,28.19
2022-10-04T11:23:11.260Z,28.19
2022-10-04T11:25:46.736Z,28.14
2022-10-04T11:28:49.010Z,28.20
2022-10-04T11:31:28.837Z,28.21
2022-10-04T11:34:17.634Z,28.09
2022-10-04T11:36:53.929Z,28.19
2022-10-04T11:39:35.273Z,28.17
2022-10-04T11:42:18.219Z,28.17
2022-10-04T11:45:00.396Z,28.21
2022-10-04T11:47:47.997Z,28.24
2022-10-04T11:50:41.404Z,28.23
2022-10-04T11:53:56.091Z,28.21
2022-10-04T11:56:44.697Z,28.22
2022-10-04T12:00:10.066Z,28.25
2022-10-04T12:03:10.923Z,28.24
2022-10-04T12:06:09.166Z,28.24
2022-10-04T12:09:04.874Z,28.25
2022-10-04T12:12:00.034Z,28.24
2022-10-04T12:14:29.248Z,28.19
2022-10-04T12:17:20.602Z,28.20
2022-10-04T12:20:06.569Z,28.23
2022-10-04T12:22:45.527Z,28.20
2022-10-04T12:25:40.388Z,28.26
2022-10-04T12:28:47.789Z,28.26
2022-10-04T12:31:30.072Z,28.21
2022-10-04T12:34:00.312Z,28.14
2022-10-04T12:36:49.094Z,28.25
2022-10-04T12:39:30.252Z,28.23
2022-10-04T12:42:06.455Z,28.24
2022-10-04T12:44:40.779Z,28.21
2022-10-04T12:47:44.821Z,28.27
2022-10-04T12:50:31.462Z,28.27
2022-10-04T12:53:31.985Z,28.25
2022-10-04T12:56:19.030Z,28.24
2022-10-04T12:59:19.344Z,28.23
2022-10-04T13:02:04.779Z,28.15
2022-10-04T13:04:52.638Z,28.26
2022-10-04T13:07:43.918Z,28.25
2022-10-04T13:10:51.726Z,28.28
2022-10-04T13:13:29.926Z,28.15
2022-10-04T13:19:35.741Z,28.28
2022-10-04T13:22:51.414Z,28.32
2022-10-04T13:25:39.267Z,28.34
2022-10-04T13:28:39.687Z,28.35
2022-10-04T13:31:22.721Z,28.31
2022-10-04T13:34:17.168Z,28.38
2022-10-04T13:36:54.164Z,28.28
2022-10-04T13:39:52.890Z,28.40
2022-10-04T13:42:50.092Z,28.41
2022-10-04T13:45:41.538Z,28.39
2022-10-04T13:48:34.635Z,28.40
2022-10-04T13:51:26.147Z,28.43
2022-10-04T13:54:33.842Z,28.33
2022-10-04T13:57:15.871Z,28.40
2022-10-04T13:59:52.295Z,28.41
2022-10-04T14:02:52.292Z,28.45
2022-10-04T14:05:43.266Z,28.44
2022-10-04T14:08:25.995Z,28.39
2022-10-04T14:11:28.008Z,28.45
2022-10-04T14:14:12.196Z,28.39
2022-10-04T14:16:56.182Z,28.40
2022-10-04T14:19:35.065Z,28.43
2022-10-04T14:22:32.186Z,28.47
2022-10-04T14:25:17.560Z,28.41
2022-10-04T14:28:13.281Z,28.41
2022-10-04T14:31:02.804Z,28.46
2022-10-04T14:33:54.671Z,28.45
2022-10-04T14:36:45.143Z,28.47
2022-10-04T14:39:31.204Z,28.42
2022-10-04T14:42:05.095Z,28.46
2022-10-04T14:44:58.756Z,28.48
2022-10-04T14:47:31.238Z,28.37
2022-10-04T14:50:17.890Z,28.49
2022-10-04T14:52:54.175Z,28.48
2022-10-04T14:55:49.550Z,28.51
2022-10-04T14:58:22.038Z,28.39
2022-10-04T15:01:13.470Z,28.52
2022-10-04T15:03:49.239Z,28.39
2022-10-04T15:06:23.243Z,28.49
2022-10-04T15:09:17.872Z,28.47
2022-10-04T15:12:21.638Z,28.43
2022-10-04T15:15:02.772Z,28.45
2022-10-04T15:17:37.959Z,28.49
2022-10-04T15:20:25.769Z,28.52
2022-10-04T15:22:57.214Z,28.48
2022-10-04T15:25:41.776Z,28.55
2022-10-04T15:28:32.890Z,28.52
2022-10-04T15:31:30.175Z,28.55
2022-10-04T15:34:13.237Z,28.53
2022-10-04T15:36:51.592Z,28.53
2022-10-04T15:39:35.491Z,28.55
2022-10-04T15:42:14.719Z,28.55
2022-10-04T15:44:53.551Z,28.51
2022-10-04T15:47:31.070Z,28.55
2022-10-04T15:50:39.081Z,28.56
2022-10-04T15:53:25.566Z,28.57
2022-10-04T15:56:00.681Z,28.55
2022-10-04T15:58:58.291Z,28.58
2022-10-04T16:01:49.166Z,28.58
2022-10-04T16:04:31.913Z,28.52
2022-10-04T16:07:10.405Z,28.51
2022-10-04T16:09:51.383Z,28.55
2022-10-04T16:12:20.393Z,28.47
2022-10-04T16:14:53.424Z,28.54
2022-10-04T16:17:44.035Z,28.58
2022-10-04T16:20:34.386Z,28.60
2022-10-04T16:23:35.897Z,28.59
2022-10-04T16:26:06.986Z,28.47
2022-10-04T16:29:11.674Z,28.59
2022-10-04T16:31:47.359Z,28.51
2022-10-04T16:34:19.917Z,28.47
2022-10-04T16:36:52.419Z,28.46
2022-10-04T16:39:54.999Z,28.56
2022-10-04T16:42:32.767Z,28.54
2022-10-04T16:45:34.839Z,28.58
2022-10-04T16:48:37.898Z,28.59
2022-10-04T16:51:13.233Z,28.55
2022-10-04T16:54:13.905Z,28.58
2022-10-04T16:57:00.474Z,28.57
2022-10-04T16:59:44.891Z,28.55
2022-10-04T17:02:30.106Z,28.51
2022-10-04T17:04:59.573Z,28.49
2022-10-04T17:08:11.302Z,28.53
2022-10-04T17:11:02.171Z,28.52
2022-10-04T17:13:43.619Z,28.51
2022-10-04T17:16:22.777Z,28.50
2022-10-04T17:19:30.731Z,28.55
2022-10-04T17:22:07.360Z,28.42
2022-10-04T17:24:57.901Z,28.51
2022-10-04T17:27:46.207Z,28.54
2022-10-04T17:30:18.291Z,28.49
2022-10-04T17:33:19.995Z,28.55
2022-10-04T17:36:23.639Z,28.53
2022-10-04T17:38:56.134Z,28.49
2022-10-04T17:42:07.880Z,28.54
2022-10-04T17:45:00.552Z,28.55
2022-10-04T17:47:59.915Z,28.52
2022-10-04T17:51:06.533Z,28.55
2022-10-04T17:53:55.215Z,28.46
2022-10-04T17:56:36.687Z,28.54
2022-10-04T17:59:19.259Z,28.49
2022-10-04T18:01:51.896Z,28.48
2022-10-04T18:04:27.936Z,28.54
2022-10-04T18:07:20.701Z,28.53
2022-10-04T18:09:59.063Z,28.54
2022-10-04T18:12:35.467Z,28.47
2022-10-04T18:15:26.695Z,28.57
2022-10-04T18:18:07.139Z,28.57
2022-10-04T18:20:38.646Z,28.50
2022-10-04T18:23:25.855Z,28.61
2022-10-04T18:25:57.386Z,28.50
2022-10-04T18:28:24.834Z,28.48
2022-10-04T18:31:00.142Z,28.58
2022-10-04T18:33:31.692Z,28.55
2022-10-04T18:36:19.105Z,28.58
2022-10-04T18:38:58.175Z,28.51
2022-10-04T18:41:44.802Z,28.48
2022-10-04T18:44:16.389Z,28.54
2022-10-04T18:46:48.033Z,28.54
2022-10-04T18:49:27.043Z,28.57
2022-10-04T18:52:11.558Z,28.61
2022-10-04T18:54:53.162Z,28.59
2022-10-04T18:58:21.840Z,28.61
2022-10-04T19:01:16.919Z,28.57
2022-10-04T19:03:59.859Z,28.60
2022-10-04T19:06:30.651Z,28.54
2022-10-04T19:09:18.219Z,28.62
2022-10-04T19:11:54.069Z,28.56
2022-10-04T19:14:36.724Z,28.59
2022-10-04T19:17:21.167Z,28.59
2022-10-04T19:19:47.446Z,28.57
2022-10-04T19:22:23.051Z,28.49
2022-10-04T19:25:21.910Z,28.61
2022-10-04T19:28:09.898Z,28.61
2022-10-04T19:30:48.193Z,28.52
2022-10-04T19:33:31.107Z,28.61
2022-10-04T19:36:06.459Z,28.60
2022-10-04T19:38:38.874Z,28.52
2022-10-04T19:41:30.247Z,28.64
2022-10-04T19:44:20.173Z,28.62
2022-10-04T19:46:56.067Z,28.58
2022-10-04T19:49:51.042Z,28.64
2022-10-04T19:52:23.380Z,28.61
2022-10-04T19:54:59.807Z,28.62
2022-10-04T19:57:51.802Z,28.64
2022-10-04T20:00:20.193Z,28.52
2022-10-04T20:02:48.962Z,28.50
2022-10-04T20:05:28.040Z,28.62
2022-10-04T20:08:12.796Z,28.61
2022-10-04T20:10:40.081Z,28.52
2022-10-04T20:13:26.776Z,28.65
2022-10-04T20:15:54.987Z,28.52
2022-10-04T20:18:33.301Z,28.66
2022-10-04T20:21:03.337Z,28.55
2022-10-04T20:23:38.965Z,28.66
2022-10-04T20:26:14.870Z,28.60
2022-10-04T20:28:42.692Z,28.57
2022-10-04T20:31:30.670Z,28.58
2022-10-04T20:34:33.564Z,28.70
2022-10-04T20:37:00.069Z,28.59
2022-10-04T20:39:41.671Z,28.70
2022-10-04T20:42:27.181Z,28.59
2022-10-04T20:45:03.652Z,28.62
2022-10-04T20:47:41.731Z,28.61
2022-10-04T20:50:11.831Z,28.66
2022-10-04T20:52:44.643Z,28.66
2022-10-04T20:55:21.101Z,28.69
2022-10-04T20:57:47.759Z,28.62
2022-10-04T21:00:27.775Z,28.69
2022-10-04T21:03:08.079Z,28.72
2022-10-04T21:05:34.585Z,28.62
2022-10-04T21:08:15.441Z,28.69
2022-10-04T21:11:02.339Z,28.72
2022-10-04T21:13:52.225Z,28.69
2022-10-04T21:16:42.287Z,28.73
2022-10-04T21:19:43.600Z,28.71
2022-10-04T21:22:15.952Z,28.68
2022-10-04T21:24:43.903Z,28.64
2022-10-04T21:27:24.658Z,28.64
2022-10-04T21:29:53.587Z,28.61
2022-10-04T21:32:21.129Z,28.62
2022-10-04T21:34:53.471Z,28.61
2022-10-04T21:37:21.355Z,28.60
2022-10-04T21:39:48.010Z,28.59
2022-10-04T21:42:14.617Z,28.61
2022-10-04T21:44:41.039Z,28.59
2022-10-04T21:47:07.463Z,28.61
2022-10-04T21:49:34.835Z,28.63
2022-10-04T21:52:01.323Z,28.62
2022-10-04T21:54:27.866Z,28.60
2022-10-04T21:56:54.257Z,28.59
2022-10-04T21:59:40.745Z,28.71
2022-10-04T22:02:07.782Z,28.59
2022-10-04T22:04:34.681Z,28.60
2022-10-04T22:07:01.233Z,28.60
2022-10-04T22:09:27.696Z,28.62
2022-10-04T22:11:54.076Z,28.62
2022-10-04T22:14:20.496Z,28.59
2022-10-04T22:16:47.250Z,28.61
2022-10-04T22:19:13.867Z,28.62
2022-10-04T22:21:40.286Z,28.62
2022-10-04T22:24:14.952Z,28.69
2022-10-04T22:26:41.333Z,28.60
2022-10-04T22:29:13.306Z,28.68
2022-10-04T22:31:43.948Z,28.63
2022-10-04T22:34:20.176Z,28.68
2022-10-04T22:36:49.772Z,28.63
2022-10-04T22:39:20.763Z,28.68
2022-10-04T22:41:59.543Z,28.71
2022-10-04T22:44:29.829Z,28.63
2022-10-04T22:46:58.991Z,28.65
2022-10-04T22:49:27.695Z,28.61
2022-10-04T22:51:56.431Z,28.63
2022-10-04T22:54:25.778Z,28.65
2022-10-04T22:56:53.057Z,28.61
2022-10-04T22:59:21.297Z,28.62
2022-10-04T23:01:48.187Z,28.61
2022-10-04T23:04:22.685Z,28.67
2022-10-04T23:06:50.184Z,28.61
2022-10-04T23:09:16.912Z,28.61
2022-10-04T23:11:43.886Z,28.61
2022-10-04T23:14:11.171Z,28.61
2022-10-04T23:16:38.778Z,28.59
2022-10-04T23:19:19.691Z,28.71
2022-10-04T23:21:48.592Z,28.60
2022-10-04T23:24:22.897Z,28.70
2022-10-04T23:26:54.631Z,28.65
2022-10-04T23:29:31.940Z,28.68
2022-10-04T23:31:58.496Z,28.58
2022-10-04T23:34:33.451Z,28.68
2022-10-04T23:36:59.974Z,28.60
2022-10-04T23:39:31.801Z,28.66
2022-10-04T23:42:05.682Z,28.60
2022-10-04T23:44:37.072Z,28.63
2022-10-04T23:47:14.174Z,28.66
2022-10-04T23:49:40.755Z,28.58
2022-10-04T23:52:14.404Z,28.65
2022-10-04T23:54:40.837Z,28.58
2022-10-04T23:57:10.718Z,28.63
2022-10-04T23:59:38.760Z,28.62
